Airports

 


Airport Name Latest METAR Visual Conditions
Cincinnati/Northern Kentucky International (CVG) KCVG 252205Z 06011KT 2SM -DZ BR OVC005 01/M01 A2977 RMK AO2 PRESFR P0000 T00061006 $ IFR
John Glenn Columbus International (CMH) KCMH 252151Z 05008KT 5SM BR OVC009 00/M01 A2985 RMK AO2 RAE49 SLP117 P0000 T00001011 IFR
Yeager (CRW) KCRW 252154Z 00000KT 2SM +RA BR OVC003 03/03 A2984 RMK AO2 SLP109 P0035 T00330033 $ LIFR
James M Cox Dayton International (DAY) KDAY 252156Z 06009KT 4SM -RA BR OVC007 00/00 A2984 RMK AO2 RAB27 SLP113 P0000 T00000000 $ IFR
Evansville Regional (EVV) KEVV 252208Z 10003KT 2 1/2SM R22/2600VP6000FT RA BR OVC005 05/03 A2966 RMK AO2 VIS 1 3/4V5 LTG DSNT NE AND E P0004 T00500028 IFR
Indianapolis International (IND) KIND 252213Z 05011KT 2SM -DZ BR OVC007 00/M01 A2976 RMK AO2 P0000 T00001006 IFR
Blue Grass (LEX) KLEX 252154Z 11014KT 9SM -RA FEW048 SCT070 OVC090 04/03 A2971 RMK AO2 PRESFR SLP064 P0021 T00390033 $ VFR
Louisville Muhammad Ali International (SDF) KSDF 252156Z 03005KT 10SM OVC007 04/03 A2968 RMK AO2 RAE43 SLP051 P0004 T00440033 $ IFR
Anderson Municipal-Darlington Field (AID) KAID 252059Z 06007G15KT 7SM OVC009 00/M01 A2982 IFR
Columbus Municipal (BAK) KBAK 252210Z 06009KT 3SM BR OVC008 00/00 A2974 IFR
Monroe County (BMG) KBMG 252153Z 07010KT 7SM OVC006 02/00 A2970 RMK AO2 SLP064 T00170000 IFR
Wright-Patterson Air Force Base (FFO) KFFO 252156Z 06007KT 6SM BR OVC008 00/M02 A2983 RMK AO2A SLP113 T00011020 IFR
Godman Army Airfield (FTK) KFTK 252157Z 10009KT 3SM -RA OVC003 05/05 A2966 RMK RAE18 SLP050 P0001 T00470047 LIFR
Himsel Army Airfield (HBE) No weather for this Airport Unknown
Tri-State/Milton J Ferguson Field (HTS) KHTS 252151Z 04004KT 4SM -RA BR BKN004 OVC009 02/01 A2985 RMK AO2 CIG 002V006 SLP112 P0025 T00170006 LIFR
Terre Haute Regional (HUF) KHUF 252153Z 05010KT 9SM OVC008 02/00 A2974 RMK AO2 SLP075 T00170000 $ IFR
Wilmington Air Park (ILN) KILN 252209Z AUTO 10005KT 2SM UP BR OVC003 00/M01 A2981 RMK AO2 UPB05 P0000 T00001011 LIFR
Rickenbacker International (LCK) KLCK 252155Z AUTO 07011KT 5SM BR OVC006 00/M01 A2982 RMK AO2 T10051011 IFR
Bowman Field (LOU) KLOU 252153Z 03006KT 10SM OVC006 04/02 A2967 RMK AO2 RAE47 SLP051 P0004 T00440022 IFR
Cincinnati Municipal Airport Lunken Field (LUK) KLUK 252153Z 04005KT 10SM OVC010 02/00 A2984 RMK AO2 RAE2055 CIG 009V013 SLP108 P0000 T00170000 MVFR
Delaware County Regional (MIE) KMIE 252153Z 06013KT 3SM HZ OVC010 01/M02 A2982 RMK AO2 RAB31E40 SLP103 P0000 T00111022 MVFR
Ohio State University (OSU) KOSU 252153Z 06007KT 4SM BR OVC009 01/M01 A2985 RMK AO2 RAE2058 SLP116 P0000 T00061011 IFR
Owensboro-Daviess County Regional (OWB) KOWB 252156Z 15008KT 10SM -RA OVC008 06/06 A2966 RMK AO2 LTG DSNT N AND NW RAB46 SLP046 P0001 T00610061 IFR
Mid-Ohio Valley Regional (PKB) KPKB 252153Z 08006KT 1 1/2SM -RA BR OVC004 01/00 A2987 RMK AO2 SLP121 P0006 T00110000 LIFR
Bolton Field (TZR) KTZR 252147Z 06008KT 4SM BR OVC006 M01/M01 A2984 IFR
Middlesboro-Bell County (1A6) K1A6 252155Z AUTO 00000KT 10SM OVC014 11/11 A2983 RMK AO2 T01100110 MVFR
Georgetown-Scott County Regional (27K) K27K 252215Z AUTO 12014G23KT 7SM SCT075 OVC085 03/03 A2971 RMK AO1 VFR
Madisonville Regional (2I0) K2I0 252155Z AUTO 15006KT 10SM -RA BKN004 BKN037 OVC045 A2965 RMK AO2 P0001 LIFR
Mason County (3I2) K3I2 252155Z AUTO 05004KT 10SM -DZ OVC006 02/02 A2988 RMK AO2 T00160016 IFR
Knox County (4I3) K4I3 252155Z AUTO 06009KT 10SM SCT011 SCT031 SCT070 M00/M02 A2987 RMK AO2 VFR
Lebanon Springfield-George Hoerter Field (6I2) K6I2 252150Z AUTO 11013G21KT 10SM FEW002 SCT100 05/05 A2965 RMK AO2 VFR
Logan County (6L4) K6L4 252155Z AUTO 00000KT 1SM +RA OVC002 06/06 A2985 RMK AO2 LIFR
Livingston Municipal (8A3) K8A3 252155Z AUTO 09006KT 9SM BKN004 BKN008 BKN035 12/11 A2976 RMK A01 P0001 LIFR
Kee Field (I16) KI16 252155Z AUTO 2 1/2SM RA OVC026 07/07 A2981 RMK AO2 T00710066 IFR
Greene County-Lewis A Jackson Regional (I19) KI19 252155Z AUTO 07005KT 4SM BR OVC006 00/00 A2984 RMK AO2 T00000000 IFR
Fayette County (I23) KI23 252155Z AUTO 06006KT 2 1/2SM OVC004 M01/M01 A2982 RMK AO1 LIFR
Tucker-Guthrie Memorial (I35) KI35 252155Z AUTO 30012G15KT 10SM BKN019 OVC025 12/11 A2981 RMK AO2 T01210108 MVFR
James A Rhodes (I43) KI43 252215Z AUTO 13005KT 10SM OVC005 01/00 A2978 RMK AO2 IFR
Cincinnati West (I67) KI67 252155Z AUTO 06003KT 7SM OVC007 00/00 A2982 RMK AO1 P0001 IFR
Clermont County (I69) KI69 252155Z AUTO 08004KT 10SM BKN006 OVC021 01/00 A2982 RMK AO2 T00060000 IFR
Grimes Field (I74) KI74 252155Z AUTO 07007KT 4SM UP OVC007 00/M01 A2984 RMK AO2 IFR
Hancock Co-Ron Lewis Field (KY8) KKY8 252155Z AUTO VRB05G10KT 10SM SCT010 SCT043 BKN050 06/06 A2965 RMK A01 VFR
Brazil Clay County (0I2) No weather for this Airport Unknown
Cynthiana-Harrison County (0I8) No weather for this Airport Unknown
Holmes County (10G) No weather for this Airport Unknown
Ona Airpark (12V) No weather for this Airport Unknown
Mc Creary County (18I) No weather for this Airport Unknown
Casey Municipal (1H8) No weather for this Airport Unknown
Jamestown Municipal (2A1) No weather for this Airport Unknown
Hendricks County-Gordon Graham Fld (2R2) No weather for this Airport Unknown
Sky King (3I3) No weather for this Airport Unknown
Dayton-Phillipsburg (3I7) No weather for this Airport Unknown
Morrow County (4I9) No weather for this Airport Unknown
Sheridan (5I4) No weather for this Airport Unknown
Indianapolis Downtown (8A4) No weather for this Airport Unknown
Piqua Airport- Hartzell Field (I17) No weather for this Airport Unknown
Jackson County (I18) No weather for this Airport Unknown
Randolph County (I22) No weather for this Airport Unknown
Greensburg Municipalcipal (I34) No weather for this Airport Unknown
Richard Downing (I40) No weather for this Airport Unknown
Clinton Field (I66) No weather for this Airport Unknown
Warren County/John Lane Field (I68) No weather for this Airport Unknown
Perry County (I86) No weather for this Airport Unknown
Breckinridge County (I93) No weather for this Airport Unknown
Hardin County (I95) No weather for this Airport Unknown
Russell County (K24) No weather for this Airport Unknown
Gene Snyder (K62) No weather for this Airport Unknown
Leitchfield-Grayson Co (M20) No weather for this Airport Unknown
Taylor County (AAS) KAAS 252155Z AUTO 10011KT 10SM BKN003 BKN055 OVC090 07/07 A2971 RMK AO1 LIFR
Mount Carmel Municipal (AJG) KAJG 252155Z AUTO 08009KT 10SM OVC007 03/02 A2967 RMK AO2 T00310020 IFR
Alexander Salamon (AMT) No weather for this Airport Unknown
Lima Allen County (AOH) No weather for this Airport Unknown
Neil Armstrong (AXV) KAXV 252155Z AUTO 06008KT 5SM BR OVC010 00/M02 A2987 RMK AO2 MVFR
Virgil I Grissom Municipal (BFR) No weather for this Airport Unknown
Raleigh County Memorial (BKW) KBKW 252209Z AUTO 02007KT 2SM +RA BR SCT006 BKN013 OVC020 04/04 A2984 RMK AO2 VIS 1/4 RWY19 CIG 003 RWY19 PRESRR P0008 T00390039 TSNO IFR
Mercer County (BLF) KBLF 252152Z AUTO VRB05G15KT 6SM -RA BR OVC005 05/05 A2981 RMK AO2 CIG 003V008 SLP097 P0004 T00500050 IFR
Samuels Field (BRY) KBRY 252215Z AUTO 00000KT 10SM OVC005 04/04 A2967 RMK AO1 IFR
Williamsburg-Whitley County (BYL) KBYL 252155Z AUTO 00000KT 5SM FEW020 SCT043 BKN049 09/09 A2984 RMK AO1 P0006 MVFR
Mettel Field (CEV) No weather for this Airport Unknown
Crawfordsville Regional (CFJ) KCFJ 252155Z AUTO 05013KT 7SM OVC010 M01/M02 A2978 RMK AO2 T10081020 MVFR
Wendell H Ford (CPF) No weather for this Airport Unknown
Lakefield (CQA) No weather for this Airport Unknown
Carmi Municipal (CUL) No weather for this Airport Unknown
Pickaway County Memorial (CYO) No weather for this Airport Unknown
Daviess County (DCY) KDCY 252155Z AUTO 09013KT 10SM OVC008 02/02 A2966 RMK AO2 T00230022 IFR
Delaware Municipal - Jim Moore Field (DLZ) No weather for this Airport Unknown
Stuart Powell Field (DVK) KDVK 252155Z AUTO 12010G15KT 7SM -RA OVC004 05/05 A2971 RMK AO2 LIFR
Ashland Regional (DWU) No weather for this Airport Unknown
Appalachian Regional (EBD) No weather for this Airport Unknown
Bellefontaine Regional (EDJ) No weather for this Airport Unknown
Henderson City-County (EHR) KEHR 252156Z AUTO 10SM -RA OVC005 04/04 A2966 RMK AO2 LTG DSNT NE RAE07B30 SLP044 P0001 T00440039 IFR
Wayne County (EKQ) No weather for this Airport Unknown
Addington Field (EKX) No weather for this Airport Unknown
Pike County (EOP) No weather for this Airport Unknown
Eagle Creek Airpark (EYE) No weather for this Airport Unknown
Capital City (FFT) No weather for this Airport Unknown
Fleming-Mason (FGX) KFGX 252155Z AUTO 16014G21KT 10SM -DZ OVC004 01/01 A2976 RMK AO2 T00070007 LIFR
French Lick Municipal (FRH) No weather for this Airport Unknown
Gallia-Meigs Regional (GAS) No weather for this Airport Unknown
Brown County (GEO) No weather for this Airport Unknown
Shelbyville Municipal (GEZ) No weather for this Airport Unknown
Putnam County Regional (GPC) KGPC 252155Z AUTO 06010G16KT 2SM -DZ BR OVC007 00/M01 A2974 RMK AO2 T00011006 IFR
Butler Co Regional-Hogan Field (HAO) No weather for this Airport Unknown
Indy South Greenwood (HFY) KHFY 252215Z AUTO 07008KT 2SM OVC008 00/00 A2977 RMK AO2 T00001005 IFR
Huntingburg (HNB) KHNB 252156Z AUTO 09009KT 10SM OVC007 03/03 A2964 RMK AO2 LTG DSNT SW UPE22RAB11E40 SLP042 P0001 T00330033 IFR
Highland County (HOC) No weather for this Airport Unknown
Madison Municipal (IMS) No weather for this Airport Unknown
Mount Sterling-Montgomery County (IOB) KIOB 252155Z AUTO 12009G15KT 3SM -RA SCT006 BKN045 OVC085 03/03 A2979 RMK AO2 P0023 MVFR
Julian Carroll (JKL) No weather for this Airport Unknown
Ohio County (JQD) No weather for this Airport Unknown
Clark Regional (JVY) KJVY 252155Z AUTO 04006KT 10SM -RA OVC008 02/02 A2968 RMK AO2 T00220020 TSNO IFR
Fairfield County (LHQ) KLHQ 252153Z AUTO 08009KT 6SM BR OVC006 00/M01 A2985 RMK AO2 UPE06 SLP116 P0000 I1001 T00001011 IFR
Lonesome Pine (LNP) No weather for this Airport Unknown
London-Corbin Arpt-Magee Field (LOZ) KLOZ 252153Z AUTO 13005KT 10SM -RA FEW055 FEW070 OVC095 08/08 A2979 RMK AO2 PK WND 34028/2101 RAB2057 SLP090 P0017 T00780078 $ VFR
Lawrenceville-Vincennes International (LWV) No weather for this Airport Unknown
Dayton-Wright Brothers (MGY) KMGY 252153Z AUTO 07005KT 5SM BR OVC006 01/M01 A2981 RMK AO2 SLP102 I1001 T00061006 IFR
Indianapolis Regional (MQJ) No weather for this Airport Unknown
Union County (MRT) KMRT 252155Z AUTO 07007KT 5SM OVC008 00/M01 A2986 RMK AO2 T10031015 IFR
Middletown Regional/Hook Field (MWO) KMWO 252155Z AUTO 06003KT 7SM BR OVC010 01/00 A2985 RMK AO2 T00060004 MVFR
North Vernon (OVO) No weather for this Airport Unknown
Miami University (OXD) KOXD 252155Z AUTO 09005KT 3SM BR OVC004 01/01 A2980 RMK AO2 T00050005 LIFR
Pike County-Hatcher Field (PBX) KPBX 252155Z AUTO 07010G16KT 1 1/2SM UP OVC002 05/05 A2983 RMK AO2 T00530053 LIFR
Greater Portsmouth Regional (PMH) KPMH 252155Z AUTO 17010KT 7SM -DZ OVC006 A2980 RMK AO2 P0001 IFR
Edgar County (PRG) No weather for this Airport Unknown
Central Kentucky Regional (RGA) KRGA 252155Z AUTO 11007KT 7SM OVC003 05/05 A2978 RMK AO2 LIFR
Richmond Municipal (RID) KRID 252215Z AUTO 07007KT 2SM OVC006 00/00 A2981 RMK AO2 PWINO IFR
Crawford Co (RSV) KRSV 252155Z AUTO 05011KT 10SM OVC008 02/01 RMK AO2 T00220013 IFR
Ross County (RZT) KRZT 252155Z AUTO 08005KT 10SM OVC006 00/00 A2981 RMK AO2 P0001 PWINO IFR
Sidney Municipal (SCA) No weather for this Airport Unknown
Scott Municipal (SCX) KSCX 252155Z AUTO 04004KT 3SM BR BKN006 BKN024 OVC043 12/11 A2982 RMK A01 P0014 IFR
Freeman Municipal (SER) No weather for this Airport Unknown
Springfield-Beckley Municipal (SGH) No weather for this Airport Unknown
Sullivan County (SIV) No weather for this Airport Unknown
Big Sandy Regional (SJS) KSJS 252155Z AUTO 07003KT 2 1/2SM RA BKN002 BKN035 OVC044 05/05 A2984 RMK AO2 T00460046 LIFR
Lake Cumberland Regional (SME) No weather for this Airport Unknown
Summersville (SXL) No weather for this Airport Unknown
Morehead-Rowan County Clyde A Thomas Regional (SYM) KSYM 252155Z AUTO 13007KT 090V160 1 3/4SM RA BKN004 BKN029 OVC035 03/02 A2981 RMK AO2 LIFR
Perry County Municipal (TEL) No weather for this Airport Unknown
Sturgis Municipal (TWT) No weather for this Airport Unknown
Indianapolis Executive (TYQ) KTYQ 252155Z AUTO 06010G15KT 3SM BR OVC008 00/M01 A2979 RMK AO2 T10031015 IFR
Indianapolis Metropolitan (UMP) No weather for this Airport Unknown
Ohio University (UNI) KUNI 252155Z AUTO 08007KT 10SM OVC005 A2981 RMK AO2 IFR
Boggs Field (USW) No weather for this Airport Unknown
New Castle Henry County Marlatt Field (UWL) No weather for this Airport Unknown
Madison County (UYF) KUYF 252155Z AUTO 05012KT 3SM BR OVC006 00/M01 A2983 RMK AO2 IFR
Darke County (VES) KVES 252155Z AUTO 06007KT 5SM BR OVC009 00/00 A2983 RMK AO2 PNO IFR
Newark-Heath (VTA) KVTA 252154Z AUTO A2987 RMK AO2 SLPNO PWINO FZRANO VFR
Zanesville Municipal (ZZV) KZZV 252153Z AUTO 07005KT 9SM SCT039 SCT055 BKN110 01/M01 A2987 RMK AO2 UPE27RAB27E28 SLP124 P0000 T00061011 VFR
Red Stewart Airfield (40I) No weather for this Airport Unknown
Dahio Trotwood (I44) No weather for this Airport Unknown
Mad River Airpark (I54) No weather for this Airport Unknown
Moraine Air Park (I73) No weather for this Airport Unknown
Alexandria (I99) No weather for this Airport Unknown
Fry (0OH8) No weather for this Airport Unknown
Fayette County Memorial Hospital (11OH) No weather for this Airport Unknown
Uk Hospital (37KY) No weather for this Airport Unknown
Andy Barnhart Memorial (3OH0) No weather for this Airport Unknown
Medical Center Albany (45KY) No weather for this Airport Unknown
Westlake Regional Hospital (48KY) No weather for this Airport Unknown
Manchester Memorial Hospital (4KY2) No weather for this Airport Unknown
Bethesda Hospital Helistop (4OH2) No weather for this Airport Unknown
Appalachian Regional Hospital (51KY) No weather for this Airport Unknown
Bedford Medical Center (57IN) No weather for this Airport Unknown
Union Hospital (60II) No weather for this Airport Unknown
Skydive Greene County Inc (7OA7) No weather for this Airport Unknown
Methodist Hospital Of In Inc (81II) No weather for this Airport Unknown
Saint Joseph Hospital (88KY) No weather for this Airport Unknown
Riverside Methodist Hospital (9OI9) No weather for this Airport Unknown
Decatur County Memorial Hospital (IN35) No weather for this Airport Unknown
Reid Hospital (IN68) No weather for this Airport Unknown
Ball Memorial Hospital (IN74) No weather for this Airport Unknown
Iu Health Morgan (IN84) No weather for this Airport Unknown
Grant Medical Center (OH01) No weather for this Airport Unknown
Knox Communicipalty Hospital (OH04) No weather for this Airport Unknown
O'Bleness Memorial Hospital (OH23) No weather for this Airport Unknown
Schaney'S Lair (OH46) No weather for this Airport Unknown
Southern Ohio Regional Medical Center (OH62) No weather for this Airport Unknown
Troy Skypark (OH71) No weather for this Airport Unknown
Nationwide Children'S Hospital (OI95) No weather for this Airport Unknown